createdAt,value
2017-12-06T00:01:45.027Z,7.80
2017-12-06T00:04:11.944Z,7.80
2017-12-06T00:06:38.860Z,7.70
2017-12-06T00:09:05.772Z,7.70
2017-12-06T00:11:34.607Z,7.70
2017-12-06T00:14:01.525Z,7.60
2017-12-06T00:16:28.453Z,7.60
2017-12-06T00:18:55.424Z,7.60
2017-12-06T00:21:23.340Z,7.60
2017-12-06T00:23:51.004Z,7.60
2017-12-06T00:26:18.690Z,7.60
2017-12-06T00:28:45.600Z,7.60
2017-12-06T00:31:13.296Z,7.60
2017-12-06T00:33:40.205Z,7.70
2017-12-06T00:36:07.903Z,7.60
2017-12-06T00:38:34.812Z,7.60
2017-12-06T00:41:02.504Z,7.50
2017-12-06T00:43:29.413Z,7.50
2017-12-06T00:45:57.133Z,7.50
2017-12-06T00:48:25.086Z,7.50
2017-12-06T00:50:51.993Z,7.50
2017-12-06T00:53:19.691Z,7.50
2017-12-06T00:55:46.621Z,7.40
2017-12-06T00:58:13.534Z,7.40
2017-12-06T01:00:45.376Z,7.40
2017-12-06T01:03:12.300Z,7.40
2017-12-06T01:05:42.517Z,7.40
2017-12-06T01:08:09.470Z,7.40
2017-12-06T01:10:36.380Z,7.40
2017-12-06T01:13:03.305Z,7.50
2017-12-06T01:15:31.003Z,7.40
2017-12-06T01:17:57.917Z,7.40
2017-12-06T01:20:25.630Z,7.40
2017-12-06T01:22:52.545Z,7.40
2017-12-06T01:25:19.472Z,7.30
2017-12-06T01:27:47.141Z,7.20
2017-12-06T01:30:14.069Z,7.20
2017-12-06T01:32:42.762Z,7.00
2017-12-06T01:35:10.444Z,7.00
2017-12-06T01:37:38.317Z,7.00
2017-12-06T01:40:06.256Z,7.00
2017-12-06T01:42:33.936Z,7.10
2017-12-06T01:45:00.904Z,7.00
2017-12-06T01:47:27.813Z,7.10
2017-12-06T01:49:54.736Z,7.20
2017-12-06T01:52:22.621Z,7.20
2017-12-06T01:54:49.580Z,7.20
2017-12-06T01:57:16.504Z,7.30
2017-12-06T01:59:44.196Z,7.40
2017-12-06T02:02:11.100Z,7.30
2017-12-06T02:04:38.038Z,7.40
2017-12-06T02:07:04.951Z,7.40
2017-12-06T02:09:32.868Z,7.50
2017-12-06T02:12:00.546Z,7.60
2017-12-06T02:14:27.475Z,7.60
2017-12-06T02:16:55.154Z,7.60
2017-12-06T02:19:22.072Z,7.60
2017-12-06T02:21:49.750Z,7.60
2017-12-06T02:24:16.680Z,7.60
2017-12-06T02:26:44.361Z,7.60
2017-12-06T02:29:11.288Z,7.60
2017-12-06T02:31:38.966Z,7.60
2017-12-06T02:34:05.888Z,7.60
2017-12-06T02:36:33.560Z,7.60
2017-12-06T02:39:01.230Z,7.60
2017-12-06T02:41:40.861Z,7.60
2017-12-06T02:44:20.301Z,7.60
2017-12-06T02:46:47.969Z,7.60
2017-12-06T02:49:15.655Z,7.60
2017-12-06T02:51:42.570Z,7.60
2017-12-06T02:54:10.258Z,7.60
2017-12-06T02:56:38.069Z,7.60
2017-12-06T02:59:05.015Z,7.60
2017-12-06T03:01:31.947Z,7.60
2017-12-06T03:03:58.884Z,7.70
2017-12-06T03:06:25.815Z,7.70
2017-12-06T03:08:52.726Z,7.60
2017-12-06T03:11:19.674Z,7.60
2017-12-06T03:13:46.961Z,7.60
2017-12-06T03:16:13.871Z,7.60
2017-12-06T03:18:40.835Z,7.60
2017-12-06T03:21:07.777Z,7.60
2017-12-06T03:23:34.702Z,7.50
2017-12-06T03:26:01.617Z,7.40
2017-12-06T03:28:28.525Z,7.30
2017-12-06T03:30:55.454Z,7.30
2017-12-06T03:33:24.316Z,7.40
2017-12-06T03:35:51.236Z,7.40
2017-12-06T03:38:18.145Z,7.40
2017-12-06T03:40:45.070Z,7.40
2017-12-06T03:43:12.928Z,7.50
2017-12-06T03:45:39.852Z,7.60
2017-12-06T03:48:08.545Z,7.60
2017-12-06T03:50:36.250Z,7.60
2017-12-06T03:53:04.160Z,7.60
2017-12-06T03:55:31.887Z,7.60
2017-12-06T03:57:58.818Z,7.60
2017-12-06T04:00:25.753Z,7.70
2017-12-06T04:02:52.661Z,7.70
2017-12-06T04:05:20.360Z,7.60
2017-12-06T04:07:47.264Z,7.60
2017-12-06T04:10:14.939Z,7.70
2017-12-06T04:12:42.620Z,7.80
2017-12-06T04:15:09.545Z,7.70
2017-12-06T04:17:36.463Z,7.80
2017-12-06T04:20:03.405Z,7.80
2017-12-06T04:22:31.301Z,7.80
2017-12-06T04:25:00.180Z,7.80
2017-12-06T04:27:27.865Z,7.70
2017-12-06T04:29:54.824Z,7.70
2017-12-06T04:32:21.752Z,7.70
2017-12-06T04:34:49.577Z,7.60
2017-12-06T04:37:16.496Z,7.50
2017-12-06T04:39:45.349Z,7.40
2017-12-06T04:42:12.256Z,7.40
2017-12-06T04:44:39.188Z,7.30
2017-12-06T04:47:06.097Z,7.40
2017-12-06T04:49:33.046Z,7.40
2017-12-06T04:51:59.948Z,7.60
2017-12-06T04:54:27.689Z,7.60
2017-12-06T04:56:55.577Z,7.60
2017-12-06T04:59:22.520Z,7.60
2017-12-06T05:01:49.429Z,7.70
2017-12-06T05:04:16.344Z,7.70
2017-12-06T05:06:43.268Z,7.80
2017-12-06T05:09:10.941Z,7.90
2017-12-06T05:11:37.861Z,7.90
2017-12-06T05:14:05.544Z,7.90
2017-12-06T05:16:32.506Z,7.90
2017-12-06T05:19:00.332Z,7.90
2017-12-06T05:21:29.022Z,8.00
2017-12-06T05:23:56.717Z,8.10
2017-12-06T05:26:23.652Z,8.00
2017-12-06T05:28:52.516Z,8.00
2017-12-06T05:31:19.464Z,8.00
2017-12-06T05:33:47.170Z,8.00
2017-12-06T05:36:15.009Z,8.00
2017-12-06T05:38:41.914Z,8.00
2017-12-06T05:41:08.849Z,8.00
2017-12-06T05:43:35.784Z,7.90
2017-12-06T05:46:02.724Z,7.90
2017-12-06T05:48:29.640Z,7.90
2017-12-06T05:50:57.483Z,7.90
2017-12-06T05:53:25.159Z,7.90
2017-12-06T05:55:52.085Z,7.90
2017-12-06T05:58:20.778Z,7.90
2017-12-06T06:00:49.470Z,7.80
2017-12-06T06:03:17.148Z,7.90
2017-12-06T06:05:44.079Z,7.80
2017-12-06T06:08:10.985Z,7.90
2017-12-06T06:10:37.936Z,7.90
2017-12-06T06:13:04.884Z,7.90
2017-12-06T06:15:31.825Z,7.90
2017-12-06T06:17:58.749Z,7.90
2017-12-06T06:20:26.685Z,8.00
2017-12-06T06:22:53.611Z,8.00
2017-12-06T06:25:20.538Z,7.90
2017-12-06T06:27:48.212Z,7.90
2017-12-06T06:30:15.929Z,7.90
2017-12-06T06:32:43.852Z,8.00
2017-12-06T06:35:11.717Z,7.90
2017-12-06T06:37:39.560Z,7.90
2017-12-06T06:40:06.489Z,7.90
2017-12-06T06:42:33.408Z,8.00
2017-12-06T06:45:00.348Z,8.00
2017-12-06T06:47:27.259Z,8.00
2017-12-06T06:49:54.178Z,8.00
2017-12-06T06:52:22.052Z,7.90
2017-12-06T06:54:49.745Z,7.90
2017-12-06T06:57:16.657Z,7.90
2017-12-06T06:59:44.338Z,8.00
2017-12-06T07:02:11.261Z,8.00
2017-12-06T07:04:38.979Z,8.10
2017-12-06T07:07:05.899Z,8.00
2017-12-06T07:09:32.829Z,8.00
2017-12-06T07:12:00.581Z,8.10
2017-12-06T07:14:29.281Z,8.10
2017-12-06T07:16:56.193Z,8.00
2017-12-06T07:19:23.129Z,8.10
2017-12-06T07:21:50.045Z,8.10
2017-12-06T07:24:16.988Z,8.10
2017-12-06T07:26:43.927Z,8.10
2017-12-06T07:29:10.915Z,8.10
2017-12-06T07:31:38.821Z,8.00
2017-12-06T07:34:05.740Z,8.00
2017-12-06T07:36:33.425Z,8.00
2017-12-06T07:39:00.352Z,8.00
2017-12-06T07:41:28.033Z,8.00
2017-12-06T07:43:55.534Z,8.00
2017-12-06T07:46:22.441Z,8.00
2017-12-06T07:48:49.352Z,8.00
2017-12-06T07:51:16.281Z,8.00
2017-12-06T07:53:43.203Z,8.00
2017-12-06T07:56:10.160Z,8.10
2017-12-06T07:58:37.121Z,8.10
2017-12-06T08:01:04.036Z,8.10
2017-12-06T08:03:30.962Z,8.20
2017-12-06T08:05:57.902Z,8.20
2017-12-06T08:08:25.756Z,8.20
2017-12-06T08:10:52.676Z,8.20
2017-12-06T08:13:20.348Z,8.20
2017-12-06T08:15:48.080Z,8.20
2017-12-06T08:18:14.985Z,8.20
2017-12-06T08:20:41.899Z,8.20
2017-12-06T08:23:09.592Z,8.30
2017-12-06T08:25:36.516Z,8.20
2017-12-06T08:28:03.438Z,8.30
2017-12-06T08:30:31.433Z,8.30
2017-12-06T08:32:59.287Z,8.30
2017-12-06T08:35:26.974Z,8.30
2017-12-06T08:37:53.879Z,8.30
2017-12-06T08:40:20.809Z,8.30
2017-12-06T08:42:47.742Z,8.30
2017-12-06T08:45:14.676Z,8.30
2017-12-06T08:47:41.586Z,8.40
2017-12-06T08:50:08.529Z,8.40
2017-12-06T08:52:35.452Z,8.40
2017-12-06T08:55:03.145Z,8.40
2017-12-06T08:57:30.980Z,8.40
2017-12-06T08:59:58.974Z,8.40
2017-12-06T09:02:26.813Z,8.40
2017-12-06T09:04:56.249Z,8.40
2017-12-06T09:07:23.996Z,8.40
2017-12-06T09:09:51.871Z,8.50
2017-12-06T09:12:20.711Z,8.40
2017-12-06T09:14:47.633Z,8.40
2017-12-06T09:17:14.540Z,8.50
2017-12-06T09:19:41.491Z,8.50
2017-12-06T09:22:08.409Z,8.50
2017-12-06T09:24:35.364Z,8.50
2017-12-06T09:27:02.269Z,8.50
2017-12-06T09:29:29.228Z,8.50
2017-12-06T09:31:56.164Z,8.50
2017-12-06T09:34:24.089Z,8.50
2017-12-06T09:36:52.949Z,8.60
2017-12-06T09:39:19.893Z,8.60
2017-12-06T09:41:47.582Z,8.60
2017-12-06T09:44:15.549Z,8.60
2017-12-06T09:46:42.465Z,8.60
2017-12-06T09:49:11.164Z,8.70
2017-12-06T09:51:38.556Z,8.60
2017-12-06T09:54:05.488Z,8.70
2017-12-06T09:56:33.420Z,8.70
2017-12-06T09:59:01.118Z,8.70
2017-12-06T10:01:28.032Z,8.60
2017-12-06T10:03:55.737Z,8.70
2017-12-06T10:06:22.680Z,8.70
2017-12-06T10:08:49.582Z,8.70
2017-12-06T10:11:17.247Z,8.70
2017-12-06T10:13:44.173Z,8.70
2017-12-06T10:16:11.838Z,8.60
2017-12-06T10:18:39.522Z,8.70
2017-12-06T10:21:06.427Z,8.60
2017-12-06T10:23:33.362Z,8.70
2017-12-06T10:26:01.243Z,8.60
2017-12-06T10:28:28.142Z,8.60
2017-12-06T10:30:56.079Z,8.60
2017-12-06T10:33:23.775Z,8.60
2017-12-06T10:35:50.679Z,8.50
2017-12-06T10:38:18.351Z,8.50
2017-12-06T10:40:46.014Z,8.50
2017-12-06T10:43:14.617Z,8.40
2017-12-06T10:45:41.542Z,8.40
2017-12-06T10:48:08.454Z,8.40
2017-12-06T10:50:35.386Z,8.40
2017-12-06T10:53:02.296Z,8.50
2017-12-06T10:55:29.237Z,8.50
2017-12-06T10:57:56.160Z,8.60
2017-12-06T11:00:23.096Z,8.50
2017-12-06T11:02:50.787Z,8.60
2017-12-06T11:05:18.666Z,8.50
2017-12-06T11:07:45.615Z,8.60
2017-12-06T11:10:13.563Z,8.50
2017-12-06T11:12:40.484Z,8.60
2017-12-06T11:15:08.181Z,8.60
2017-12-06T11:17:35.092Z,8.60
2017-12-06T11:20:02.043Z,8.70
2017-12-06T11:22:28.960Z,8.70
2017-12-06T11:24:55.919Z,8.80
2017-12-06T11:27:24.412Z,8.80
2017-12-06T11:29:52.108Z,8.80
2017-12-06T11:32:19.943Z,8.80
2017-12-06T11:34:46.868Z,8.80
2017-12-06T11:37:13.782Z,8.90
2017-12-06T11:39:41.476Z,8.80
2017-12-06T11:42:08.402Z,8.90
2017-12-06T11:44:35.333Z,8.90
2017-12-06T11:47:03.016Z,8.80
2017-12-06T11:49:31.880Z,8.90
2017-12-06T11:51:59.756Z,8.80
2017-12-06T11:54:26.666Z,8.80
2017-12-06T11:56:53.589Z,8.90
2017-12-06T11:59:20.513Z,9.00
2017-12-06T12:01:47.441Z,9.00
2017-12-06T12:04:14.385Z,9.10
2017-12-06T12:06:41.313Z,9.20
2017-12-06T12:09:09.001Z,9.30
2017-12-06T12:11:39.620Z,9.20
2017-12-06T12:14:06.561Z,9.30
2017-12-06T12:16:33.496Z,9.30
2017-12-06T12:19:01.190Z,9.30
2017-12-06T12:21:28.117Z,9.30
2017-12-06T12:23:55.969Z,9.30
2017-12-06T12:26:23.834Z,9.30
2017-12-06T12:28:51.544Z,9.30
2017-12-06T12:31:18.461Z,9.30
2017-12-06T12:33:46.345Z,9.30
2017-12-06T12:36:17.257Z,9.30
2017-12-06T12:38:45.143Z,9.30
2017-12-06T12:41:12.069Z,9.30
2017-12-06T12:43:39.946Z,9.30
2017-12-06T12:46:06.869Z,9.30
2017-12-06T12:48:34.570Z,9.40
2017-12-06T12:51:01.485Z,9.40
2017-12-06T12:53:28.419Z,9.40
2017-12-06T12:55:56.105Z,9.30
2017-12-06T12:58:23.044Z,9.40
2017-12-06T13:00:50.868Z,9.40
2017-12-06T13:03:17.792Z,9.40
2017-12-06T13:05:44.712Z,9.40
2017-12-06T13:08:11.650Z,9.40
2017-12-06T13:10:39.497Z,9.40
2017-12-06T13:13:07.384Z,9.40
2017-12-06T13:15:34.311Z,9.40
2017-12-06T13:18:01.256Z,9.40
2017-12-06T13:20:29.129Z,9.40
2017-12-06T13:22:56.061Z,9.40
2017-12-06T13:25:23.744Z,9.40
2017-12-06T13:27:50.676Z,9.40
2017-12-06T13:30:17.630Z,9.30
2017-12-06T13:32:45.501Z,9.30
2017-12-06T13:35:12.434Z,9.40
2017-12-06T13:37:39.402Z,9.30
2017-12-06T13:40:06.341Z,9.30
2017-12-06T13:42:33.295Z,9.30
2017-12-06T13:45:00.204Z,9.30
2017-12-06T13:47:27.130Z,9.30
2017-12-06T13:49:54.814Z,9.30
2017-12-06T13:52:21.768Z,9.30
2017-12-06T13:54:48.678Z,9.30
2017-12-06T13:57:15.609Z,9.20
2017-12-06T13:59:43.517Z,9.20
2017-12-06T14:02:10.457Z,9.20
2017-12-06T14:04:38.300Z,9.20
2017-12-06T14:07:05.244Z,9.10
2017-12-06T14:09:32.164Z,9.10
2017-12-06T14:11:59.108Z,9.10
2017-12-06T14:14:28.065Z,9.00
2017-12-06T14:16:55.009Z,9.00
2017-12-06T14:19:21.920Z,9.00
2017-12-06T14:21:48.828Z,9.00
2017-12-06T14:24:15.753Z,8.90
2017-12-06T14:26:42.684Z,9.00
2017-12-06T14:29:09.632Z,9.00
2017-12-06T14:31:36.557Z,8.90
2017-12-06T14:34:03.497Z,8.90
2017-12-06T14:36:31.191Z,8.80
2017-12-06T14:38:58.138Z,8.80
2017-12-06T14:41:25.070Z,8.80
2017-12-06T14:43:52.082Z,8.80
2017-12-06T14:46:18.962Z,8.70
2017-12-06T14:48:45.909Z,8.80
2017-12-06T14:51:13.752Z,8.80
2017-12-06T14:53:40.688Z,8.60
2017-12-06T14:56:08.389Z,8.70
2017-12-06T14:58:35.341Z,8.60
2017-12-06T15:01:02.276Z,8.70
2017-12-06T15:03:29.212Z,8.70
2017-12-06T15:05:56.138Z,8.70
2017-12-06T15:08:23.076Z,8.60
2017-12-06T15:10:50.764Z,8.60
2017-12-06T15:13:20.821Z,8.60
2017-12-06T15:15:47.738Z,8.70
2017-12-06T15:18:14.951Z,8.70
2017-12-06T15:20:42.760Z,8.70
2017-12-06T15:23:11.612Z,8.70
2017-12-06T15:25:38.545Z,8.60
2017-12-06T15:28:05.472Z,8.60
2017-12-06T15:30:32.410Z,8.60
2017-12-06T15:32:59.365Z,8.50
2017-12-06T15:35:27.257Z,8.60
2017-12-06T15:37:54.198Z,8.50
2017-12-06T15:40:21.926Z,8.50
2017-12-06T15:42:48.845Z,8.50
2017-12-06T15:45:15.788Z,8.50
2017-12-06T15:47:42.751Z,8.50
2017-12-06T15:50:11.644Z,8.40
2017-12-06T15:52:39.525Z,8.40
2017-12-06T15:55:06.450Z,8.40
2017-12-06T15:57:33.388Z,8.40
2017-12-06T16:00:00.310Z,8.40
2017-12-06T16:02:27.245Z,8.40
2017-12-06T16:04:55.118Z,8.30
2017-12-06T16:07:34.237Z,8.20
2017-12-06T16:10:02.134Z,8.10
2017-12-06T16:12:30.320Z,8.10
2017-12-06T16:14:57.275Z,8.20
2017-12-06T16:20:03.913Z,8.20
2017-12-06T16:22:30.844Z,8.30
2017-12-06T16:24:58.526Z,8.40
2017-12-06T16:27:26.408Z,8.40
2017-12-06T16:29:54.265Z,8.40
2017-12-06T16:32:21.232Z,8.40
2017-12-06T16:35:00.854Z,8.40
2017-12-06T16:37:29.488Z,8.40
2017-12-06T16:39:56.413Z,8.40
2017-12-06T16:42:23.352Z,8.40
2017-12-06T16:44:52.188Z,8.50
2017-12-06T16:47:19.922Z,8.50
2017-12-06T16:49:46.828Z,8.50
2017-12-06T16:52:13.745Z,8.50
2017-12-06T16:54:40.681Z,8.60
2017-12-06T16:57:08.360Z,8.60
2017-12-06T16:59:36.226Z,8.60
2017-12-06T17:02:03.150Z,8.60
2017-12-06T17:04:30.841Z,8.60
2017-12-06T17:06:57.745Z,8.60
2017-12-06T17:09:25.627Z,8.70
2017-12-06T17:11:53.298Z,8.70
2017-12-06T17:14:20.247Z,8.70
2017-12-06T17:16:47.150Z,8.80
2017-12-06T17:19:14.090Z,8.70
2017-12-06T17:21:41.004Z,8.90
2017-12-06T17:24:07.939Z,9.00
2017-12-06T17:26:34.867Z,8.90
2017-12-06T17:29:13.614Z,8.80
2017-12-06T17:31:45.120Z,8.80
2017-12-06T17:34:13.755Z,8.80
2017-12-06T17:36:45.459Z,8.70
2017-12-06T17:39:13.161Z,8.90
2017-12-06T17:41:40.080Z,8.90
2017-12-06T17:44:07.037Z,8.90
2017-12-06T17:46:33.944Z,8.90
2017-12-06T17:49:00.905Z,8.80
2017-12-06T17:51:28.605Z,8.80
2017-12-06T17:53:55.559Z,8.80
2017-12-06T17:56:23.484Z,8.70
2017-12-06T17:58:51.141Z,8.70
2017-12-06T18:01:18.864Z,8.80
2017-12-06T18:03:45.796Z,8.70
2017-12-06T18:06:12.717Z,8.80
2017-12-06T18:08:39.680Z,8.90
2017-12-06T18:11:06.621Z,9.10
2017-12-06T18:13:33.653Z,9.00
2017-12-06T18:16:02.550Z,8.80
2017-12-06T18:18:29.493Z,8.80
2017-12-06T18:20:57.492Z,8.80
2017-12-06T18:23:26.383Z,8.80
2017-12-06T18:25:55.036Z,8.80
2017-12-06T18:28:21.976Z,8.70
2017-12-06T18:30:50.861Z,8.80
2017-12-06T18:33:19.746Z,8.80
2017-12-06T18:35:46.679Z,8.80
2017-12-06T18:38:14.408Z,8.80
2017-12-06T18:40:42.119Z,8.90
2017-12-06T18:43:09.068Z,8.80
2017-12-06T18:45:35.988Z,8.90
2017-12-06T18:48:03.709Z,8.80
2017-12-06T18:50:30.627Z,8.80
2017-12-06T18:52:59.512Z,8.80
2017-12-06T18:55:26.463Z,8.80
2017-12-06T18:57:55.375Z,8.80
2017-12-06T19:00:23.357Z,8.80
2017-12-06T19:02:50.590Z,8.90
2017-12-06T19:05:17.529Z,8.80
2017-12-06T19:07:44.476Z,8.80
2017-12-06T19:10:12.228Z,8.80
2017-12-06T19:12:39.180Z,8.80
2017-12-06T19:15:06.148Z,8.90
2017-12-06T19:17:34.107Z,8.90
2017-12-06T19:20:02.032Z,9.00
2017-12-06T19:22:31.616Z,9.10
2017-12-06T19:24:58.561Z,9.00
2017-12-06T19:27:26.240Z,9.00
2017-12-06T19:29:54.943Z,8.90
2017-12-06T19:32:23.818Z,8.90
2017-12-06T19:34:51.510Z,8.90
2017-12-06T19:37:18.449Z,8.90
2017-12-06T19:39:46.529Z,8.90
2017-12-06T19:42:13.629Z,8.80
2017-12-06T19:44:41.337Z,8.80
2017-12-06T19:47:09.168Z,8.80
2017-12-06T19:49:36.871Z,8.80
2017-12-06T19:52:03.805Z,8.80
2017-12-06T19:54:31.641Z,8.80
2017-12-06T19:56:59.319Z,8.80
2017-12-06T19:59:26.247Z,8.70
2017-12-06T20:01:53.953Z,8.70
2017-12-06T20:04:20.889Z,8.70
2017-12-06T20:06:48.824Z,8.70
2017-12-06T20:09:16.531Z,8.70
2017-12-06T20:11:43.445Z,8.70
2017-12-06T20:14:10.392Z,8.70
2017-12-06T20:16:37.677Z,8.70
2017-12-06T20:19:05.656Z,8.70
2017-12-06T20:21:32.601Z,8.70
2017-12-06T20:23:59.531Z,8.70
2017-12-06T20:26:26.449Z,8.80
2017-12-06T20:28:53.390Z,8.70
2017-12-06T20:31:20.360Z,8.80
2017-12-06T20:33:48.304Z,8.70
2017-12-06T20:36:15.245Z,8.80
2017-12-06T20:38:42.160Z,8.80
2017-12-06T20:41:10.061Z,8.80
2017-12-06T20:43:37.002Z,8.80
2017-12-06T20:46:03.949Z,8.70
2017-12-06T20:48:30.861Z,8.80
2017-12-06T20:50:57.788Z,8.80
2017-12-06T20:53:24.700Z,8.80
2017-12-06T20:55:51.632Z,8.80
2017-12-06T20:58:18.573Z,8.80
2017-12-06T21:00:45.525Z,8.70
2017-12-06T21:03:13.186Z,8.80
2017-12-06T21:05:40.095Z,8.80
2017-12-06T21:08:07.207Z,8.80
2017-12-06T21:10:34.482Z,8.90
2017-12-06T21:13:02.273Z,8.90
2017-12-06T21:15:29.329Z,8.80
2017-12-06T21:17:56.324Z,8.90
2017-12-06T21:20:24.162Z,8.90
2017-12-06T21:22:51.130Z,9.00
2017-12-06T21:25:18.174Z,9.00
2017-12-06T21:27:46.088Z,8.90
2017-12-06T21:30:13.958Z,8.90
2017-12-06T21:32:40.904Z,8.90
2017-12-06T21:35:08.085Z,9.00
2017-12-06T21:37:35.034Z,9.00
2017-12-06T21:40:01.970Z,8.90
2017-12-06T21:42:29.002Z,8.90
2017-12-06T21:44:55.939Z,8.90
2017-12-06T21:47:24.780Z,8.90
2017-12-06T21:49:52.617Z,8.90
2017-12-06T21:52:19.617Z,8.90
2017-12-06T21:54:48.605Z,8.90
2017-12-06T21:57:15.796Z,8.80
2017-12-06T21:59:42.817Z,8.90
2017-12-06T22:02:09.752Z,8.80
2017-12-06T22:04:36.672Z,8.80
2017-12-06T22:07:03.626Z,8.80
2017-12-06T22:09:31.537Z,8.70
2017-12-06T22:11:58.480Z,8.70
2017-12-06T22:14:26.794Z,9.30
2017-12-06T22:16:53.739Z,9.10
2017-12-06T22:19:20.680Z,8.90
2017-12-06T22:21:48.022Z,8.80
2017-12-06T22:24:14.963Z,8.80
2017-12-06T22:26:41.880Z,8.70
2017-12-06T22:29:09.791Z,8.70
2017-12-06T22:31:36.952Z,8.60
2017-12-06T22:34:03.922Z,8.60
2017-12-06T22:36:30.852Z,8.60
2017-12-06T22:38:57.773Z,8.60
2017-12-06T22:41:24.732Z,8.60
2017-12-06T22:43:51.908Z,8.60
2017-12-06T22:46:18.841Z,8.60
2017-12-06T22:48:45.814Z,8.60
2017-12-06T22:51:13.516Z,8.60
2017-12-06T22:53:40.430Z,8.60
2017-12-06T22:56:07.348Z,8.60
2017-12-06T22:58:35.025Z,8.60
2017-12-06T23:01:02.720Z,8.60
2017-12-06T23:03:29.633Z,8.50
2017-12-06T23:05:57.320Z,8.50
2017-12-06T23:08:24.234Z,8.50
2017-12-06T23:10:52.118Z,8.50
2017-12-06T23:13:19.036Z,8.50
2017-12-06T23:15:46.738Z,8.40
2017-12-06T23:18:13.647Z,8.30
2017-12-06T23:20:40.576Z,8.40
2017-12-06T23:23:08.292Z,8.40
2017-12-06T23:25:35.213Z,8.40
2017-12-06T23:28:02.914Z,8.40
2017-12-06T23:30:29.845Z,8.40
2017-12-06T23:32:56.760Z,8.40
2017-12-06T23:35:24.467Z,8.40
2017-12-06T23:37:51.376Z,8.30
2017-12-06T23:40:18.312Z,8.40
2017-12-06T23:42:46.898Z,8.30
2017-12-06T23:45:14.601Z,8.30
2017-12-06T23:47:41.514Z,8.30
2017-12-06T23:50:08.447Z,8.30
2017-12-06T23:52:36.137Z,8.30
2017-12-06T23:55:03.104Z,8.20
2017-12-06T23:57:31.937Z,8.30
